sensor_id;sensor_type;location;lat;lon;timestamp;temperature;humidity
61641;HTU21D;62201;49.966;8.342;2023-11-19T00:01:51;8.43;118.99
61641;HTU21D;62201;49.966;8.342;2023-11-19T00:04:16;8.44;118.99
61641;HTU21D;62201;49.966;8.342;2023-11-19T00:06:42;8.47;118.99
61641;HTU21D;62201;49.966;8.342;2023-11-19T00:09:07;8.48;118.99
61641;HTU21D;62201;49.966;8.342;2023-11-19T00:11:33;8.52;118.99
61641;HTU21D;62201;49.966;8.342;2023-11-19T00:13:58;8.53;118.99
61641;HTU21D;62201;49.966;8.342;2023-11-19T00:16:23;8.56;118.99
61641;HTU21D;62201;49.966;8.342;2023-11-19T00:18:49;8.59;118.99
61641;HTU21D;62201;49.966;8.342;2023-11-19T00:21:15;8.61;118.99
61641;HTU21D;62201;49.966;8.342;2023-11-19T00:23:40;8.62;118.99
61641;HTU21D;62201;49.966;8.342;2023-11-19T00:26:05;8.64;118.99
61641;HTU21D;62201;49.966;8.342;2023-11-19T00:28:32;8.63;118.99
61641;HTU21D;62201;49.966;8.342;2023-11-19T00:30:58;8.64;118.99
61641;HTU21D;62201;49.966;8.342;2023-11-19T00:33:24;8.64;118.99
61641;HTU21D;62201;49.966;8.342;2023-11-19T00:35:49;8.65;118.99
61641;HTU21D;62201;49.966;8.342;2023-11-19T00:38:15;8.63;118.99
61641;HTU21D;62201;49.966;8.342;2023-11-19T00:40:41;8.63;118.99
61641;HTU21D;62201;49.966;8.342;2023-11-19T00:43:06;8.61;118.99
61641;HTU21D;62201;49.966;8.342;2023-11-19T00:45:32;8.63;118.99
61641;HTU21D;62201;49.966;8.342;2023-11-19T00:47:58;8.63;118.99
61641;HTU21D;62201;49.966;8.342;2023-11-19T00:50:25;8.67;118.99
61641;HTU21D;62201;49.966;8.342;2023-11-19T00:52:50;8.66;118.99
61641;HTU21D;62201;49.966;8.342;2023-11-19T00:55:16;8.65;118.99
61641;HTU21D;62201;49.966;8.342;2023-11-19T00:57:42;8.66;118.99
61641;HTU21D;62201;49.966;8.342;2023-11-19T01:00:09;8.66;118.99
61641;HTU21D;62201;49.966;8.342;2023-11-19T01:02:44;8.66;118.99
61641;HTU21D;62201;49.966;8.342;2023-11-19T01:05:10;8.64;118.99
61641;HTU21D;62201;49.966;8.342;2023-11-19T01:07:39;8.58;118.99
61641;HTU21D;62201;49.966;8.342;2023-11-19T01:10:05;8.55;118.99
61641;HTU21D;62201;49.966;8.342;2023-11-19T01:12:31;8.52;118.99
61641;HTU21D;62201;49.966;8.342;2023-11-19T01:14:56;8.52;118.99
61641;HTU21D;62201;49.966;8.342;2023-11-19T01:17:23;8.52;118.99
61641;HTU21D;62201;49.966;8.342;2023-11-19T01:19:48;8.51;118.99
61641;HTU21D;62201;49.966;8.342;2023-11-19T01:22:15;8.52;118.99
61641;HTU21D;62201;49.966;8.342;2023-11-19T01:24:40;8.53;118.99
61641;HTU21D;62201;49.966;8.342;2023-11-19T01:27:06;8.56;118.99
61641;HTU21D;62201;49.966;8.342;2023-11-19T01:29:31;8.57;118.99
61641;HTU21D;62201;49.966;8.342;2023-11-19T01:31:56;8.57;118.99
61641;HTU21D;62201;49.966;8.342;2023-11-19T01:34:22;8.58;118.99
61641;HTU21D;62201;49.966;8.342;2023-11-19T01:36:47;8.60;118.99
61641;HTU21D;62201;49.966;8.342;2023-11-19T01:39:14;8.65;118.99
61641;HTU21D;62201;49.966;8.342;2023-11-19T01:41:41;8.70;118.99
61641;HTU21D;62201;49.966;8.342;2023-11-19T01:44:06;8.73;118.99
61641;HTU21D;62201;49.966;8.342;2023-11-19T01:46:32;8.74;118.99
61641;HTU21D;62201;49.966;8.342;2023-11-19T01:48:58;8.76;118.99
61641;HTU21D;62201;49.966;8.342;2023-11-19T01:51:24;8.76;118.99
61641;HTU21D;62201;49.966;8.342;2023-11-19T01:53:50;8.76;118.99
61641;HTU21D;62201;49.966;8.342;2023-11-19T01:56:16;8.75;118.99
61641;HTU21D;62201;49.966;8.342;2023-11-19T01:58:43;8.75;118.99
61641;HTU21D;62201;49.966;8.342;2023-11-19T02:01:10;8.76;118.99
61641;HTU21D;62201;49.966;8.342;2023-11-19T02:03:37;8.79;118.99
61641;HTU21D;62201;49.966;8.342;2023-11-19T02:06:03;8.80;118.99
61641;HTU21D;62201;49.966;8.342;2023-11-19T02:08:29;8.81;118.99
61641;HTU21D;62201;49.966;8.342;2023-11-19T02:10:54;8.83;118.99
61641;HTU21D;62201;49.966;8.342;2023-11-19T02:13:23;8.82;118.99
61641;HTU21D;62201;49.966;8.342;2023-11-19T02:15:50;8.83;118.99
61641;HTU21D;62201;49.966;8.342;2023-11-19T02:18:23;8.83;118.99
61641;HTU21D;62201;49.966;8.342;2023-11-19T02:20:50;8.85;118.99
61641;HTU21D;62201;49.966;8.342;2023-11-19T02:23:16;8.83;118.99
61641;HTU21D;62201;49.966;8.342;2023-11-19T02:25:43;8.83;118.99
61641;HTU21D;62201;49.966;8.342;2023-11-19T02:28:11;8.83;118.99
61641;HTU21D;62201;49.966;8.342;2023-11-19T02:30:37;8.85;118.99
61641;HTU21D;62201;49.966;8.342;2023-11-19T02:33:03;8.86;118.99
61641;HTU21D;62201;49.966;8.342;2023-11-19T02:35:31;8.87;118.99
61641;HTU21D;62201;49.966;8.342;2023-11-19T02:37:57;8.88;118.99
61641;HTU21D;62201;49.966;8.342;2023-11-19T02:40:24;8.89;118.99
61641;HTU21D;62201;49.966;8.342;2023-11-19T02:42:53;8.89;118.99
61641;HTU21D;62201;49.966;8.342;2023-11-19T02:45:24;8.90;118.99
61641;HTU21D;62201;49.966;8.342;2023-11-19T02:47:50;8.92;118.99
61641;HTU21D;62201;49.966;8.342;2023-11-19T02:50:17;8.96;118.99
61641;HTU21D;62201;49.966;8.342;2023-11-19T02:52:45;9.02;118.99
61641;HTU21D;62201;49.966;8.342;2023-11-19T02:55:11;9.04;118.99
61641;HTU21D;62201;49.966;8.342;2023-11-19T02:57:41;9.10;118.99
61641;HTU21D;62201;49.966;8.342;2023-11-19T03:00:21;9.16;118.99
61641;HTU21D;62201;49.966;8.342;2023-11-19T03:02:52;9.17;118.99
61641;HTU21D;62201;49.966;8.342;2023-11-19T03:05:26;9.19;118.99
61641;HTU21D;62201;49.966;8.342;2023-11-19T03:07:52;9.19;118.99
61641;HTU21D;62201;49.966;8.342;2023-11-19T03:10:17;9.19;118.99
61641;HTU21D;62201;49.966;8.342;2023-11-19T03:12:43;9.20;118.99
61641;HTU21D;62201;49.966;8.342;2023-11-19T03:15:09;9.20;118.99
61641;HTU21D;62201;49.966;8.342;2023-11-19T03:17:39;9.20;118.99
61641;HTU21D;62201;49.966;8.342;2023-11-19T03:20:06;9.20;118.99
61641;HTU21D;62201;49.966;8.342;2023-11-19T03:22:32;9.20;118.99
61641;HTU21D;62201;49.966;8.342;2023-11-19T03:25:01;9.20;118.99
61641;HTU21D;62201;49.966;8.342;2023-11-19T03:27:26;9.19;118.99
61641;HTU21D;62201;49.966;8.342;2023-11-19T03:29:51;9.17;118.99
61641;HTU21D;62201;49.966;8.342;2023-11-19T03:32:17;9.19;118.99
61641;HTU21D;62201;49.966;8.342;2023-11-19T03:34:42;9.19;118.99
61641;HTU21D;62201;49.966;8.342;2023-11-19T03:37:08;9.20;118.99
61641;HTU21D;62201;49.966;8.342;2023-11-19T03:39:34;9.20;118.99
61641;HTU21D;62201;49.966;8.342;2023-11-19T03:41:59;9.22;118.99
61641;HTU21D;62201;49.966;8.342;2023-11-19T03:44:26;9.22;118.99
61641;HTU21D;62201;49.966;8.342;2023-11-19T03:46:52;9.24;118.99
61641;HTU21D;62201;49.966;8.342;2023-11-19T03:49:17;9.25;118.99
61641;HTU21D;62201;49.966;8.342;2023-11-19T03:51:43;9.27;118.99
61641;HTU21D;62201;49.966;8.342;2023-11-19T03:54:08;9.29;118.99
61641;HTU21D;62201;49.966;8.342;2023-11-19T03:56:33;9.29;118.99
61641;HTU21D;62201;49.966;8.342;2023-11-19T03:58:59;9.31;118.99
61641;HTU21D;62201;49.966;8.342;2023-11-19T04:01:24;9.33;118.99
61641;HTU21D;62201;49.966;8.342;2023-11-19T04:03:49;9.36;118.99
61641;HTU21D;62201;49.966;8.342;2023-11-19T04:06:15;9.38;118.99
61641;HTU21D;62201;49.966;8.342;2023-11-19T04:08:40;9.38;118.99
61641;HTU21D;62201;49.966;8.342;2023-11-19T04:11:06;9.41;118.99
61641;HTU21D;62201;49.966;8.342;2023-11-19T04:13:33;9.41;118.99
61641;HTU21D;62201;49.966;8.342;2023-11-19T04:15:59;9.41;118.99
61641;HTU21D;62201;49.966;8.342;2023-11-19T04:18:24;9.44;118.99
61641;HTU21D;62201;49.966;8.342;2023-11-19T04:20:49;9.42;118.99
61641;HTU21D;62201;49.966;8.342;2023-11-19T04:23:16;9.46;118.99
61641;HTU21D;62201;49.966;8.342;2023-11-19T04:25:41;9.48;118.99
61641;HTU21D;62201;49.966;8.342;2023-11-19T04:28:06;9.47;118.99
61641;HTU21D;62201;49.966;8.342;2023-11-19T04:30:33;9.49;118.99
61641;HTU21D;62201;49.966;8.342;2023-11-19T04:32:58;9.52;118.99
61641;HTU21D;62201;49.966;8.342;2023-11-19T04:35:24;9.52;118.99
61641;HTU21D;62201;49.966;8.342;2023-11-19T04:37:51;9.52;118.99
61641;HTU21D;62201;49.966;8.342;2023-11-19T04:40:16;9.51;118.99
61641;HTU21D;62201;49.966;8.342;2023-11-19T04:42:43;9.53;118.99
61641;HTU21D;62201;49.966;8.342;2023-11-19T04:45:09;9.53;118.99
61641;HTU21D;62201;49.966;8.342;2023-11-19T04:47:36;9.53;118.99
61641;HTU21D;62201;49.966;8.342;2023-11-19T04:50:02;9.56;118.99
61641;HTU21D;62201;49.966;8.342;2023-11-19T04:52:27;9.57;118.99
61641;HTU21D;62201;49.966;8.342;2023-11-19T04:54:52;9.60;118.99
61641;HTU21D;62201;49.966;8.342;2023-11-19T04:57:18;9.63;118.99
61641;HTU21D;62201;49.966;8.342;2023-11-19T04:59:43;9.63;118.99
61641;HTU21D;62201;49.966;8.342;2023-11-19T05:02:09;9.65;118.99
61641;HTU21D;62201;49.966;8.342;2023-11-19T05:04:34;9.65;118.99
61641;HTU21D;62201;49.966;8.342;2023-11-19T05:07:00;9.65;118.99
61641;HTU21D;62201;49.966;8.342;2023-11-19T05:09:26;9.68;118.99
61641;HTU21D;62201;49.966;8.342;2023-11-19T05:11:51;9.62;118.99
61641;HTU21D;62201;49.966;8.342;2023-11-19T05:14:16;9.61;118.99
61641;HTU21D;62201;49.966;8.342;2023-11-19T05:16:43;9.62;118.99
61641;HTU21D;62201;49.966;8.342;2023-11-19T05:19:09;9.62;118.99
61641;HTU21D;62201;49.966;8.342;2023-11-19T05:21:34;9.62;118.99
61641;HTU21D;62201;49.966;8.342;2023-11-19T05:24:01;9.65;118.99
61641;HTU21D;62201;49.966;8.342;2023-11-19T05:26:30;9.70;118.99
61641;HTU21D;62201;49.966;8.342;2023-11-19T05:28:55;9.71;118.99
61641;HTU21D;62201;49.966;8.342;2023-11-19T05:31:21;9.74;118.99
61641;HTU21D;62201;49.966;8.342;2023-11-19T05:33:46;9.74;118.99
61641;HTU21D;62201;49.966;8.342;2023-11-19T05:36:12;9.76;118.99
61641;HTU21D;62201;49.966;8.342;2023-11-19T05:38:38;9.80;118.99
61641;HTU21D;62201;49.966;8.342;2023-11-19T05:41:04;9.80;118.99
61641;HTU21D;62201;49.966;8.342;2023-11-19T05:43:30;9.81;118.99
61641;HTU21D;62201;49.966;8.342;2023-11-19T05:45:56;9.83;118.99
61641;HTU21D;62201;49.966;8.342;2023-11-19T05:48:21;9.81;118.99
61641;HTU21D;62201;49.966;8.342;2023-11-19T05:50:46;9.82;118.99
61641;HTU21D;62201;49.966;8.342;2023-11-19T05:53:14;9.82;118.99
61641;HTU21D;62201;49.966;8.342;2023-11-19T05:55:40;9.81;118.99
61641;HTU21D;62201;49.966;8.342;2023-11-19T05:58:11;9.84;118.99
61641;HTU21D;62201;49.966;8.342;2023-11-19T06:00:40;9.85;118.99
61641;HTU21D;62201;49.966;8.342;2023-11-19T06:03:07;9.89;118.99
61641;HTU21D;62201;49.966;8.342;2023-11-19T06:05:33;9.90;118.99
61641;HTU21D;62201;49.966;8.342;2023-11-19T06:07:58;9.89;118.99
61641;HTU21D;62201;49.966;8.342;2023-11-19T06:10:24;9.93;118.99
61641;HTU21D;62201;49.966;8.342;2023-11-19T06:12:57;9.94;118.99
61641;HTU21D;62201;49.966;8.342;2023-11-19T06:15:24;9.96;118.99
61641;HTU21D;62201;49.966;8.342;2023-11-19T06:17:50;9.97;118.99
61641;HTU21D;62201;49.966;8.342;2023-11-19T06:20:15;9.98;118.99
61641;HTU21D;62201;49.966;8.342;2023-11-19T06:22:42;9.99;118.99
61641;HTU21D;62201;49.966;8.342;2023-11-19T06:25:09;10.00;118.99
61641;HTU21D;62201;49.966;8.342;2023-11-19T06:27:34;10.00;118.99
61641;HTU21D;62201;49.966;8.342;2023-11-19T06:30:00;10.01;118.99
61641;HTU21D;62201;49.966;8.342;2023-11-19T06:32:26;10.11;118.99
61641;HTU21D;62201;49.966;8.342;2023-11-19T06:34:51;10.14;118.99
61641;HTU21D;62201;49.966;8.342;2023-11-19T06:37:16;10.22;118.99
61641;HTU21D;62201;49.966;8.342;2023-11-19T06:39:42;10.26;118.99
61641;HTU21D;62201;49.966;8.342;2023-11-19T06:42:07;10.18;118.99
61641;HTU21D;62201;49.966;8.342;2023-11-19T06:44:32;10.18;118.99
61641;HTU21D;62201;49.966;8.342;2023-11-19T06:46:58;10.13;118.99
61641;HTU21D;62201;49.966;8.342;2023-11-19T06:49:23;10.08;118.99
61641;HTU21D;62201;49.966;8.342;2023-11-19T06:51:49;10.03;118.99
61641;HTU21D;62201;49.966;8.342;2023-11-19T06:54:15;9.94;118.99
61641;HTU21D;62201;49.966;8.342;2023-11-19T06:56:41;9.88;118.99
61641;HTU21D;62201;49.966;8.342;2023-11-19T06:59:07;9.81;118.99
61641;HTU21D;62201;49.966;8.342;2023-11-19T07:01:36;9.76;118.99
61641;HTU21D;62201;49.966;8.342;2023-11-19T07:04:02;9.74;118.99
61641;HTU21D;62201;49.966;8.342;2023-11-19T07:06:33;9.76;118.99
61641;HTU21D;62201;49.966;8.342;2023-11-19T07:08:59;9.71;118.99
61641;HTU21D;62201;49.966;8.342;2023-11-19T07:11:24;9.79;118.99
61641;HTU21D;62201;49.966;8.342;2023-11-19T07:13:50;9.90;118.99
61641;HTU21D;62201;49.966;8.342;2023-11-19T07:16:15;9.90;118.99
61641;HTU21D;62201;49.966;8.342;2023-11-19T07:18:41;9.95;118.99
61641;HTU21D;62201;49.966;8.342;2023-11-19T07:21:09;9.93;118.99
61641;HTU21D;62201;49.966;8.342;2023-11-19T07:23:35;9.94;118.99
61641;HTU21D;62201;49.966;8.342;2023-11-19T07:26:01;9.97;118.99
61641;HTU21D;62201;49.966;8.342;2023-11-19T07:28:26;9.98;118.99
61641;HTU21D;62201;49.966;8.342;2023-11-19T07:30:54;9.96;118.99
61641;HTU21D;62201;49.966;8.342;2023-11-19T07:33:21;9.85;118.99
61641;HTU21D;62201;49.966;8.342;2023-11-19T07:35:46;9.78;118.99
61641;HTU21D;62201;49.966;8.342;2023-11-19T07:38:12;9.76;118.99
61641;HTU21D;62201;49.966;8.342;2023-11-19T07:40:37;9.71;118.99
61641;HTU21D;62201;49.966;8.342;2023-11-19T07:43:02;9.72;118.99
61641;HTU21D;62201;49.966;8.342;2023-11-19T07:45:28;9.74;118.99
61641;HTU21D;62201;49.966;8.342;2023-11-19T07:47:53;9.79;118.99
61641;HTU21D;62201;49.966;8.342;2023-11-19T07:50:20;9.86;118.99
61641;HTU21D;62201;49.966;8.342;2023-11-19T07:52:45;9.82;118.99
61641;HTU21D;62201;49.966;8.342;2023-11-19T07:55:11;9.95;118.99
61641;HTU21D;62201;49.966;8.342;2023-11-19T07:57:37;10.01;118.99
61641;HTU21D;62201;49.966;8.342;2023-11-19T08:00:03;10.03;118.99
61641;HTU21D;62201;49.966;8.342;2023-11-19T08:02:28;10.09;118.99
61641;HTU21D;62201;49.966;8.342;2023-11-19T08:04:54;10.12;118.99
61641;HTU21D;62201;49.966;8.342;2023-11-19T08:07:20;10.14;118.99
61641;HTU21D;62201;49.966;8.342;2023-11-19T08:09:46;10.18;118.99
61641;HTU21D;62201;49.966;8.342;2023-11-19T08:12:11;10.21;118.99
61641;HTU21D;62201;49.966;8.342;2023-11-19T08:14:39;10.24;118.99
61641;HTU21D;62201;49.966;8.342;2023-11-19T08:17:04;10.33;118.99
61641;HTU21D;62201;49.966;8.342;2023-11-19T08:19:30;10.40;118.99
61641;HTU21D;62201;49.966;8.342;2023-11-19T08:21:55;10.51;118.99
61641;HTU21D;62201;49.966;8.342;2023-11-19T08:24:20;10.62;118.99
61641;HTU21D;62201;49.966;8.342;2023-11-19T08:26:46;10.75;118.99
61641;HTU21D;62201;49.966;8.342;2023-11-19T08:29:12;10.92;118.99
61641;HTU21D;62201;49.966;8.342;2023-11-19T08:31:38;11.11;118.99
61641;HTU21D;62201;49.966;8.342;2023-11-19T08:34:04;11.33;118.99
61641;HTU21D;62201;49.966;8.342;2023-11-19T08:36:29;11.62;118.99
61641;HTU21D;62201;49.966;8.342;2023-11-19T08:38:56;11.76;118.99
61641;HTU21D;62201;49.966;8.342;2023-11-19T08:41:22;11.71;118.99
61641;HTU21D;62201;49.966;8.342;2023-11-19T08:43:47;11.69;118.99
61641;HTU21D;62201;49.966;8.342;2023-11-19T08:46:13;11.67;118.99
61641;HTU21D;62201;49.966;8.342;2023-11-19T08:48:39;11.67;118.99
61641;HTU21D;62201;49.966;8.342;2023-11-19T08:51:04;11.69;118.99
61641;HTU21D;62201;49.966;8.342;2023-11-19T08:53:30;11.72;118.99
61641;HTU21D;62201;49.966;8.342;2023-11-19T08:55:55;11.78;118.99
61641;HTU21D;62201;49.966;8.342;2023-11-19T08:58:21;11.87;118.99
61641;HTU21D;62201;49.966;8.342;2023-11-19T09:00:46;11.98;118.99
61641;HTU21D;62201;49.966;8.342;2023-11-19T09:03:12;12.08;118.99
61641;HTU21D;62201;49.966;8.342;2023-11-19T09:05:37;12.22;118.99
61641;HTU21D;62201;49.966;8.342;2023-11-19T09:08:03;12.51;118.99
61641;HTU21D;62201;49.966;8.342;2023-11-19T09:10:29;12.79;118.99
61641;HTU21D;62201;49.966;8.342;2023-11-19T09:12:55;13.12;118.99
61641;HTU21D;62201;49.966;8.342;2023-11-19T09:15:20;13.38;118.99
61641;HTU21D;62201;49.966;8.342;2023-11-19T09:17:45;13.58;118.99
61641;HTU21D;62201;49.966;8.342;2023-11-19T09:20:11;13.93;118.99
61641;HTU21D;62201;49.966;8.342;2023-11-19T09:22:40;14.23;118.99
61641;HTU21D;62201;49.966;8.342;2023-11-19T09:25:05;14.35;118.99
61641;HTU21D;62201;49.966;8.342;2023-11-19T09:27:31;14.54;118.99
61641;HTU21D;62201;49.966;8.342;2023-11-19T09:29:56;14.62;118.99
61641;HTU21D;62201;49.966;8.342;2023-11-19T09:32:22;14.72;118.99
61641;HTU21D;62201;49.966;8.342;2023-11-19T09:34:48;14.75;118.99
61641;HTU21D;62201;49.966;8.342;2023-11-19T09:37:13;14.88;117.24
61641;HTU21D;62201;49.966;8.342;2023-11-19T09:39:38;15.07;112.97
61641;HTU21D;62201;49.966;8.342;2023-11-19T09:42:04;15.23;116.96
61641;HTU21D;62201;49.966;8.342;2023-11-19T09:44:29;15.31;107.22
61641;HTU21D;62201;49.966;8.342;2023-11-19T09:46:56;15.43;105.19
61641;HTU21D;62201;49.966;8.342;2023-11-19T09:49:26;15.54;101.77
61641;HTU21D;62201;49.966;8.342;2023-11-19T09:51:52;15.61;100.03
61641;HTU21D;62201;49.966;8.342;2023-11-19T09:54:17;15.74;99.17
61641;HTU21D;62201;49.966;8.342;2023-11-19T09:56:43;15.84;97.04
61641;HTU21D;62201;49.966;8.342;2023-11-19T09:59:09;15.88;95.64
61641;HTU21D;62201;49.966;8.342;2023-11-19T10:01:37;15.87;92.24
61641;HTU21D;62201;49.966;8.342;2023-11-19T10:04:03;15.93;91.62
61641;HTU21D;62201;49.966;8.342;2023-11-19T10:06:28;15.90;90.74
61641;HTU21D;62201;49.966;8.342;2023-11-19T10:08:54;16.15;93.91
61641;HTU21D;62201;49.966;8.342;2023-11-19T10:11:20;16.24;91.68
61641;HTU21D;62201;49.966;8.342;2023-11-19T10:13:46;16.29;91.18
61641;HTU21D;62201;49.966;8.342;2023-11-19T10:16:13;16.37;88.11
61641;HTU21D;62201;49.966;8.342;2023-11-19T10:18:45;16.54;88.02
61641;HTU21D;62201;49.966;8.342;2023-11-19T10:21:12;16.36;87.03
61641;HTU21D;62201;49.966;8.342;2023-11-19T10:23:52;16.31;85.96
61641;HTU21D;62201;49.966;8.342;2023-11-19T10:26:19;16.28;86.27
61641;HTU21D;62201;49.966;8.342;2023-11-19T10:28:46;15.87;89.10
61641;HTU21D;62201;49.966;8.342;2023-11-19T10:31:16;15.70;91.90
61641;HTU21D;62201;49.966;8.342;2023-11-19T10:33:42;15.43;90.57
61641;HTU21D;62201;49.966;8.342;2023-11-19T10:36:10;15.37;91.50
61641;HTU21D;62201;49.966;8.342;2023-11-19T10:38:37;15.72;89.98
61641;HTU21D;62201;49.966;8.342;2023-11-19T10:41:03;15.62;88.76
61641;HTU21D;62201;49.966;8.342;2023-11-19T10:43:29;15.88;86.15
61641;HTU21D;62201;49.966;8.342;2023-11-19T10:46:08;15.57;86.11
61641;HTU21D;62201;49.966;8.342;2023-11-19T10:48:34;15.83;85.11
61641;HTU21D;62201;49.966;8.342;2023-11-19T10:51:00;15.81;85.28
61641;HTU21D;62201;49.966;8.342;2023-11-19T10:53:27;15.99;85.85
61641;HTU21D;62201;49.966;8.342;2023-11-19T10:55:54;16.42;83.40
61641;HTU21D;62201;49.966;8.342;2023-11-19T10:58:21;16.13;85.49
61641;HTU21D;62201;49.966;8.342;2023-11-19T11:00:52;16.05;84.76
61641;HTU21D;62201;49.966;8.342;2023-11-19T11:03:24;16.13;84.99
61641;HTU21D;62201;49.966;8.342;2023-11-19T11:05:51;16.21;84.51
61641;HTU21D;62201;49.966;8.342;2023-11-19T11:08:18;15.96;87.35
61641;HTU21D;62201;49.966;8.342;2023-11-19T11:10:54;15.70;86.77
61641;HTU21D;62201;49.966;8.342;2023-11-19T11:13:22;15.67;88.55
61641;HTU21D;62201;49.966;8.342;2023-11-19T11:15:49;15.96;87.32
61641;HTU21D;62201;49.966;8.342;2023-11-19T11:18:15;16.41;87.77
61641;HTU21D;62201;49.966;8.342;2023-11-19T11:20:44;16.77;85.13
61641;HTU21D;62201;49.966;8.342;2023-11-19T11:23:36;17.05;82.43
61641;HTU21D;62201;49.966;8.342;2023-11-19T11:26:35;17.09;81.64
61641;HTU21D;62201;49.966;8.342;2023-11-19T11:29:10;17.48;81.77
61641;HTU21D;62201;49.966;8.342;2023-11-19T11:35:07;18.62;76.44
61641;HTU21D;62201;49.966;8.342;2023-11-19T11:37:42;18.52;78.03
61641;HTU21D;62201;49.966;8.342;2023-11-19T11:40:16;18.12;80.62
61641;HTU21D;62201;49.966;8.342;2023-11-19T11:42:47;17.41;78.91
61641;HTU21D;62201;49.966;8.342;2023-11-19T11:45:14;16.99;78.06
61641;HTU21D;62201;49.966;8.342;2023-11-19T11:50:12;17.19;75.19
61641;HTU21D;62201;49.966;8.342;2023-11-19T11:55:51;17.16;73.65
61641;HTU21D;62201;49.966;8.342;2023-11-19T11:58:18;17.37;78.09
61641;HTU21D;62201;49.966;8.342;2023-11-19T12:00:43;17.39;72.04
61641;HTU21D;62201;49.966;8.342;2023-11-19T12:03:11;17.53;73.67
61641;HTU21D;62201;49.966;8.342;2023-11-19T12:05:44;17.45;71.71
61641;HTU21D;62201;49.966;8.342;2023-11-19T12:08:11;17.21;69.52
61641;HTU21D;62201;49.966;8.342;2023-11-19T12:10:46;17.07;66.39
61641;HTU21D;62201;49.966;8.342;2023-11-19T12:13:13;17.04;67.62
61641;HTU21D;62201;49.966;8.342;2023-11-19T12:18:31;17.02;66.47
61641;HTU21D;62201;49.966;8.342;2023-11-19T12:20:58;16.94;67.23
61641;HTU21D;62201;49.966;8.342;2023-11-19T12:23:29;16.65;65.03
61641;HTU21D;62201;49.966;8.342;2023-11-19T12:25:55;16.70;64.95
61641;HTU21D;62201;49.966;8.342;2023-11-19T12:28:20;16.62;65.82
61641;HTU21D;62201;49.966;8.342;2023-11-19T12:30:46;16.55;64.65
61641;HTU21D;62201;49.966;8.342;2023-11-19T12:33:13;16.51;65.03
61641;HTU21D;62201;49.966;8.342;2023-11-19T12:35:53;16.50;64.09
61641;HTU21D;62201;49.966;8.342;2023-11-19T12:40:45;16.41;65.71
61641;HTU21D;62201;49.966;8.342;2023-11-19T12:43:10;16.43;66.57
61641;HTU21D;62201;49.966;8.342;2023-11-19T12:45:36;16.56;64.82
61641;HTU21D;62201;49.966;8.342;2023-11-19T12:48:05;16.50;63.99
61641;HTU21D;62201;49.966;8.342;2023-11-19T12:50:53;16.50;64.53
61641;HTU21D;62201;49.966;8.342;2023-11-19T12:53:20;16.54;64.00
61641;HTU21D;62201;49.966;8.342;2023-11-19T12:55:45;16.59;62.72
61641;HTU21D;62201;49.966;8.342;2023-11-19T12:58:28;16.58;63.34
61641;HTU21D;62201;49.966;8.342;2023-11-19T13:01:08;16.64;63.68
61641;HTU21D;62201;49.966;8.342;2023-11-19T13:03:36;16.61;64.88
61641;HTU21D;62201;49.966;8.342;2023-11-19T13:06:06;16.63;64.55
61641;HTU21D;62201;49.966;8.342;2023-11-19T13:08:40;16.52;63.47
61641;HTU21D;62201;49.966;8.342;2023-11-19T13:11:07;16.49;63.62
61641;HTU21D;62201;49.966;8.342;2023-11-19T13:13:51;16.58;64.15
61641;HTU21D;62201;49.966;8.342;2023-11-19T13:16:17;16.54;63.52
61641;HTU21D;62201;49.966;8.342;2023-11-19T13:18:42;16.37;63.72
61641;HTU21D;62201;49.966;8.342;2023-11-19T13:21:08;16.30;64.49
61641;HTU21D;62201;49.966;8.342;2023-11-19T13:23:33;16.25;63.80
61641;HTU21D;62201;49.966;8.342;2023-11-19T13:25:58;16.25;63.89
61641;HTU21D;62201;49.966;8.342;2023-11-19T13:28:24;16.16;65.39
61641;HTU21D;62201;49.966;8.342;2023-11-19T13:30:50;16.07;65.68
61641;HTU21D;62201;49.966;8.342;2023-11-19T13:33:16;16.03;66.31
61641;HTU21D;62201;49.966;8.342;2023-11-19T13:35:41;15.99;66.98
61641;HTU21D;62201;49.966;8.342;2023-11-19T13:38:07;15.95;67.43
61641;HTU21D;62201;49.966;8.342;2023-11-19T13:40:34;15.95;67.52
61641;HTU21D;62201;49.966;8.342;2023-11-19T13:42:59;15.87;68.90
61641;HTU21D;62201;49.966;8.342;2023-11-19T13:45:25;15.86;66.24
61641;HTU21D;62201;49.966;8.342;2023-11-19T13:47:50;15.84;65.50
61641;HTU21D;62201;49.966;8.342;2023-11-19T13:50:16;15.83;67.29
61641;HTU21D;62201;49.966;8.342;2023-11-19T13:52:45;15.84;64.22
61641;HTU21D;62201;49.966;8.342;2023-11-19T13:55:13;15.89;63.60
61641;HTU21D;62201;49.966;8.342;2023-11-19T13:57:39;15.84;64.78
61641;HTU21D;62201;49.966;8.342;2023-11-19T14:00:09;15.84;64.34
61641;HTU21D;62201;49.966;8.342;2023-11-19T14:02:46;15.73;66.15
61641;HTU21D;62201;49.966;8.342;2023-11-19T14:05:15;15.72;67.06
61641;HTU21D;62201;49.966;8.342;2023-11-19T14:07:43;15.70;68.81
61641;HTU21D;62201;49.966;8.342;2023-11-19T14:10:09;15.65;69.29
61641;HTU21D;62201;49.966;8.342;2023-11-19T14:12:36;15.56;69.88
61641;HTU21D;62201;49.966;8.342;2023-11-19T14:15:06;15.56;68.71
61641;HTU21D;62201;49.966;8.342;2023-11-19T14:17:32;15.49;69.23
61641;HTU21D;62201;49.966;8.342;2023-11-19T14:19:58;15.42;69.02
61641;HTU21D;62201;49.966;8.342;2023-11-19T14:22:24;15.39;68.84
61641;HTU21D;62201;49.966;8.342;2023-11-19T14:24:50;15.38;68.49
61641;HTU21D;62201;49.966;8.342;2023-11-19T14:27:15;15.37;69.43
61641;HTU21D;62201;49.966;8.342;2023-11-19T14:29:42;15.37;69.02
61641;HTU21D;62201;49.966;8.342;2023-11-19T14:32:08;15.34;69.27
61641;HTU21D;62201;49.966;8.342;2023-11-19T14:34:33;15.37;69.21
61641;HTU21D;62201;49.966;8.342;2023-11-19T14:36:59;15.34;67.89
61641;HTU21D;62201;49.966;8.342;2023-11-19T14:39:25;15.28;67.67
61641;HTU21D;62201;49.966;8.342;2023-11-19T14:41:51;15.28;65.53
61641;HTU21D;62201;49.966;8.342;2023-11-19T14:44:17;15.23;64.68
61641;HTU21D;62201;49.966;8.342;2023-11-19T14:46:45;15.16;66.22
61641;HTU21D;62201;49.966;8.342;2023-11-19T14:49:10;15.14;66.00
61641;HTU21D;62201;49.966;8.342;2023-11-19T14:51:37;15.11;66.43
61641;HTU21D;62201;49.966;8.342;2023-11-19T14:54:04;14.94;67.26
61641;HTU21D;62201;49.966;8.342;2023-11-19T14:56:29;14.84;67.77
61641;HTU21D;62201;49.966;8.342;2023-11-19T14:58:54;14.73;68.64
61641;HTU21D;62201;49.966;8.342;2023-11-19T15:01:20;14.57;69.05
61641;HTU21D;62201;49.966;8.342;2023-11-19T15:03:45;14.49;69.87
61641;HTU21D;62201;49.966;8.342;2023-11-19T15:06:10;14.47;69.18
61641;HTU21D;62201;49.966;8.342;2023-11-19T15:08:36;14.34;70.26
61641;HTU21D;62201;49.966;8.342;2023-11-19T15:11:02;14.24;70.89
61641;HTU21D;62201;49.966;8.342;2023-11-19T15:13:30;14.19;70.45
61641;HTU21D;62201;49.966;8.342;2023-11-19T15:15:55;14.17;70.64
61641;HTU21D;62201;49.966;8.342;2023-11-19T15:18:21;14.22;70.12
61641;HTU21D;62201;49.966;8.342;2023-11-19T15:20:47;14.20;69.81
61641;HTU21D;62201;49.966;8.342;2023-11-19T15:23:13;14.14;70.34
61641;HTU21D;62201;49.966;8.342;2023-11-19T15:25:38;14.15;69.96